createdAt,value
2019-03-20T00:00:54.574Z,3.60
2019-03-20T00:03:22.178Z,3.60
2019-03-20T00:05:49.917Z,3.60
2019-03-20T00:08:18.338Z,3.70
2019-03-20T00:10:46.509Z,3.60
2019-03-20T00:13:14.404Z,3.60
2019-03-20T00:15:42.209Z,3.70
2019-03-20T00:18:09.654Z,3.60
2019-03-20T00:20:37.414Z,3.70
2019-03-20T00:23:04.911Z,3.70
2019-03-20T00:25:32.638Z,3.70
2019-03-20T00:28:00.582Z,3.70
2019-03-20T00:30:29.113Z,3.70
2019-03-20T00:32:58.975Z,3.80
2019-03-20T00:35:26.380Z,3.80
2019-03-20T00:37:53.728Z,3.80
2019-03-20T00:40:21.124Z,3.80
2019-03-20T00:42:49.607Z,3.80
2019-03-20T00:45:16.974Z,3.90
2019-03-20T00:47:44.342Z,3.90
2019-03-20T00:50:13.849Z,3.90
2019-03-20T00:52:41.854Z,3.90
2019-03-20T00:55:09.341Z,4.00
2019-03-20T00:57:37.377Z,4.00
2019-03-20T01:00:06.679Z,4.00
2019-03-20T01:02:35.594Z,4.00
2019-03-20T01:05:12.129Z,4.10
2019-03-20T01:07:34.225Z,4.00
2019-03-20T01:10:02.078Z,4.00
2019-03-20T01:12:29.710Z,4.10
2019-03-20T01:14:57.156Z,4.00
2019-03-20T01:17:24.670Z,4.00
2019-03-20T01:19:52.706Z,4.10
2019-03-20T01:22:20.144Z,4.10
2019-03-20T01:24:47.511Z,4.10
2019-03-20T01:27:15.311Z,4.10
2019-03-20T01:29:43.331Z,4.00
2019-03-20T01:32:11.034Z,4.00
2019-03-20T01:34:38.794Z,4.00
2019-03-20T01:37:06.795Z,4.00
2019-03-20T01:39:34.537Z,4.10
2019-03-20T01:42:02.442Z,4.00
2019-03-20T01:44:30.230Z,4.00
2019-03-20T01:46:57.808Z,3.90
2019-03-20T01:49:25.702Z,3.90
2019-03-20T01:51:53.752Z,4.00
2019-03-20T01:54:21.344Z,4.00
2019-03-20T01:56:49.284Z,3.90
2019-03-20T01:59:17.211Z,3.90
2019-03-20T02:01:45.953Z,3.80
2019-03-20T02:04:13.806Z,3.80
2019-03-20T02:06:42.182Z,3.60
2019-03-20T02:09:09.656Z,3.60
2019-03-20T02:11:37.549Z,3.40
2019-03-20T02:14:05.619Z,3.30
2019-03-20T02:16:33.128Z,3.20
2019-03-20T02:19:00.832Z,3.10
2019-03-20T02:21:29.293Z,2.90
2019-03-20T02:24:06.880Z,2.80
2019-03-20T02:26:35.647Z,2.60
2019-03-20T02:29:03.617Z,2.50
2019-03-20T02:31:30.931Z,2.40
2019-03-20T02:33:58.293Z,2.30
2019-03-20T02:36:25.940Z,2.20
2019-03-20T02:38:53.253Z,2.10
2019-03-20T02:41:20.547Z,2.00
2019-03-20T02:43:48.881Z,1.90
2019-03-20T02:46:16.319Z,1.80
2019-03-20T02:48:44.502Z,1.70
2019-03-20T02:51:12.126Z,1.70
2019-03-20T02:53:40.237Z,1.60
2019-03-20T02:56:08.403Z,1.60
2019-03-20T02:58:36.022Z,1.50
2019-03-20T03:01:03.494Z,1.40
2019-03-20T03:03:31.006Z,1.40
2019-03-20T03:06:06.896Z,1.30
2019-03-20T03:08:28.306Z,1.20
2019-03-20T03:10:56.131Z,1.20
2019-03-20T03:13:24.138Z,1.10
2019-03-20T03:15:51.572Z,1.10
2019-03-20T03:18:19.155Z,1.00
2019-03-20T03:20:46.728Z,1.00
2019-03-20T03:23:14.373Z,0.90
2019-03-20T03:25:42.231Z,0.90
2019-03-20T03:28:10.054Z,0.80
2019-03-20T03:30:37.507Z,0.80
2019-03-20T03:33:06.087Z,0.80
2019-03-20T03:35:33.455Z,0.70
2019-03-20T03:38:00.914Z,0.70
2019-03-20T03:40:29.115Z,0.60
2019-03-20T03:42:57.362Z,0.60
2019-03-20T03:45:25.203Z,0.50
2019-03-20T03:47:54.022Z,0.50
2019-03-20T03:50:21.653Z,0.50
2019-03-20T03:52:49.366Z,0.40
2019-03-20T03:55:17.536Z,0.40
2019-03-20T03:57:45.317Z,0.30
2019-03-20T04:00:13.363Z,0.30
2019-03-20T04:02:41.635Z,0.30
2019-03-20T04:05:11.039Z,0.20
2019-03-20T04:07:38.330Z,0.20
2019-03-20T04:10:07.479Z,0.20
2019-03-20T04:12:35.235Z,0.10
2019-03-20T04:15:02.784Z,0.10
2019-03-20T04:17:30.904Z,0.10
2019-03-20T04:19:59.392Z,0.20
2019-03-20T04:22:27.684Z,0.10
2019-03-20T04:24:56.145Z,0.00
2019-03-20T04:27:23.698Z,0.00
2019-03-20T04:29:52.492Z,0.00
2019-03-20T04:32:20.143Z,0.00
2019-03-20T04:34:47.780Z,-0.10
2019-03-20T04:37:15.341Z,-0.10
2019-03-20T04:39:48.734Z,-0.10
2019-03-20T04:42:17.562Z,-0.10
2019-03-20T04:44:47.405Z,-0.20
2019-03-20T04:47:15.534Z,-0.20
2019-03-20T04:49:48.130Z,-0.20
2019-03-20T04:52:16.523Z,-0.20
2019-03-20T04:54:44.376Z,-0.20
2019-03-20T04:57:15.965Z,-0.20
2019-03-20T04:59:43.991Z,-0.40
2019-03-20T05:02:12.230Z,-0.20
2019-03-20T05:04:39.842Z,-0.40
2019-03-20T05:07:08.208Z,-0.30
2019-03-20T05:09:37.738Z,-0.30
2019-03-20T05:12:07.104Z,-0.30
2019-03-20T05:14:35.611Z,-0.30
2019-03-20T05:17:03.913Z,-0.30
2019-03-20T05:19:31.643Z,-0.20
2019-03-20T05:22:00.221Z,-0.20
2019-03-20T05:24:27.765Z,-0.20
2019-03-20T05:26:56.258Z,-0.10
2019-03-20T05:29:23.827Z,-0.10
2019-03-20T05:31:51.347Z,0.00
2019-03-20T05:34:19.224Z,0.00
2019-03-20T05:36:47.028Z,0.10
2019-03-20T05:39:15.916Z,0.20
2019-03-20T05:41:44.148Z,0.30
2019-03-20T05:44:11.744Z,0.40
2019-03-20T05:46:39.376Z,0.70
2019-03-20T05:49:07.210Z,1.30
2019-03-20T05:51:35.079Z,1.90
2019-03-20T05:54:02.666Z,2.60
2019-03-20T05:56:30.608Z,3.10
2019-03-20T05:58:58.635Z,3.70
2019-03-20T06:01:27.602Z,4.30
2019-03-20T06:03:56.123Z,4.70
2019-03-20T06:06:24.298Z,5.00
2019-03-20T06:08:52.857Z,5.50
2019-03-20T06:11:20.415Z,5.70
2019-03-20T06:13:48.251Z,5.90
2019-03-20T06:16:15.978Z,6.10
2019-03-20T06:18:43.674Z,6.10
2019-03-20T06:21:11.602Z,6.20
2019-03-20T06:23:39.401Z,5.90
2019-03-20T06:26:07.406Z,5.60
2019-03-20T06:28:35.093Z,5.30
2019-03-20T06:31:03.583Z,5.00
2019-03-20T06:33:31.038Z,4.80
2019-03-20T06:35:58.444Z,4.50
2019-03-20T06:38:26.856Z,4.40
2019-03-20T06:40:54.818Z,4.20
2019-03-20T06:43:22.197Z,4.10
2019-03-20T06:45:59.163Z,4.10
2019-03-20T06:48:26.841Z,3.90
2019-03-20T06:50:54.527Z,4.10
2019-03-20T06:53:22.260Z,4.10
2019-03-20T06:55:50.350Z,4.00
2019-03-20T06:58:17.917Z,4.10
2019-03-20T07:00:59.915Z,4.10
2019-03-20T07:03:37.782Z,4.20
2019-03-20T07:06:42.372Z,4.20
2019-03-20T07:09:33.056Z,4.30
2019-03-20T07:12:00.945Z,4.30
2019-03-20T07:14:28.246Z,4.40
2019-03-20T07:16:56.322Z,4.50
2019-03-20T07:19:24.556Z,4.70
2019-03-20T07:21:52.336Z,4.70
2019-03-20T07:24:19.749Z,4.80
2019-03-20T07:26:48.160Z,4.80
2019-03-20T07:29:15.853Z,4.90
2019-03-20T07:31:44.287Z,5.00
2019-03-20T07:34:15.902Z,5.00
2019-03-20T07:36:44.523Z,5.10
2019-03-20T07:39:12.186Z,5.30
2019-03-20T07:41:42.206Z,5.30
2019-03-20T07:44:09.835Z,5.30
2019-03-20T07:46:37.618Z,5.50
2019-03-20T07:49:05.179Z,5.60
2019-03-20T07:51:40.078Z,5.70
2019-03-20T07:54:14.063Z,5.80
2019-03-20T07:56:45.951Z,5.90
2019-03-20T07:59:14.429Z,6.00
2019-03-20T08:01:42.822Z,6.10
2019-03-20T08:04:11.296Z,6.20
2019-03-20T08:06:53.870Z,6.20
2019-03-20T08:10:32.973Z,6.40
2019-03-20T08:12:58.170Z,6.50
2019-03-20T08:15:26.236Z,6.60
2019-03-20T08:18:05.370Z,6.70
2019-03-20T08:20:33.553Z,6.80
2019-03-20T08:23:01.502Z,6.90
2019-03-20T08:25:29.682Z,7.00
2019-03-20T08:27:57.534Z,7.00
2019-03-20T08:30:25.475Z,7.20
2019-03-20T08:32:53.208Z,7.30
2019-03-20T08:35:29.036Z,7.40
2019-03-20T08:38:01.128Z,7.50
2019-03-20T08:40:29.266Z,7.50
2019-03-20T08:43:08.033Z,7.70
2019-03-20T08:45:35.726Z,7.60
2019-03-20T08:48:04.116Z,7.80
2019-03-20T08:50:31.890Z,7.90
2019-03-20T08:53:00.361Z,7.90
2019-03-20T08:55:32.143Z,8.10
2019-03-20T08:58:08.446Z,8.10
2019-03-20T09:00:43.879Z,8.20
2019-03-20T09:03:24.802Z,8.20
2019-03-20T09:05:53.028Z,8.30
2019-03-20T09:08:30.051Z,8.40
2019-03-20T09:10:58.700Z,8.50
2019-03-20T09:13:28.057Z,8.60
2019-03-20T09:15:56.349Z,8.60
2019-03-20T09:18:26.026Z,8.70
2019-03-20T09:21:01.147Z,8.70
2019-03-20T09:23:33.290Z,8.80
2019-03-20T09:26:01.312Z,8.80
2019-03-20T09:28:29.286Z,8.90
2019-03-20T09:31:03.264Z,9.10
2019-03-20T09:33:34.732Z,9.20
2019-03-20T09:36:02.804Z,9.20
2019-03-20T09:38:42.921Z,9.30
2019-03-20T09:41:04.187Z,9.30
2019-03-20T09:43:35.683Z,9.40
2019-03-20T09:46:09.737Z,9.50
2019-03-20T09:48:43.090Z,9.60
2019-03-20T09:51:15.141Z,9.70
2019-03-20T09:53:50.110Z,9.80
2019-03-20T09:56:18.950Z,9.90
2019-03-20T09:58:50.605Z,9.90
2019-03-20T10:01:25.014Z,9.90
2019-03-20T10:04:07.284Z,9.90
2019-03-20T10:06:42.156Z,9.90
2019-03-20T10:09:18.305Z,10.00
2019-03-20T10:11:46.955Z,10.20
2019-03-20T10:14:29.862Z,10.10
2019-03-20T10:17:17.334Z,10.20
2019-03-20T10:19:49.946Z,10.40
2019-03-20T10:28:48.821Z,10.40
2019-03-20T10:32:12.641Z,10.40
2019-03-20T10:34:55.607Z,10.30
2019-03-20T10:37:29.234Z,10.30
2019-03-20T10:40:20.505Z,10.40
2019-03-20T10:42:50.110Z,10.30
2019-03-20T10:46:08.129Z,10.50
2019-03-20T10:48:43.455Z,10.40
2019-03-20T10:52:02.702Z,10.60
2019-03-20T10:54:57.123Z,10.60
2019-03-20T11:04:59.648Z,10.70
2019-03-20T11:07:29.567Z,10.80
2019-03-20T11:09:58.251Z,10.80
2019-03-20T11:12:26.400Z,10.80
2019-03-20T11:15:00.352Z,10.90
2019-03-20T11:17:36.172Z,10.90
2019-03-20T11:20:04.976Z,11.00
2019-03-20T11:22:33.660Z,11.10
2019-03-20T11:25:08.236Z,11.10
2019-03-20T11:27:37.157Z,11.00
2019-03-20T11:30:12.303Z,11.10
2019-03-20T11:32:40.366Z,11.00
2019-03-20T11:35:08.382Z,11.10
2019-03-20T11:37:36.318Z,11.20
2019-03-20T11:40:06.631Z,11.20
2019-03-20T11:42:34.264Z,11.20
2019-03-20T11:45:02.209Z,11.10
2019-03-20T11:47:31.988Z,11.20
2019-03-20T11:50:00.691Z,11.20
2019-03-20T11:52:28.633Z,11.10
2019-03-20T11:54:57.003Z,11.20
2019-03-20T11:57:24.599Z,11.30
2019-03-20T12:00:15.120Z,11.30
2019-03-20T12:03:16.658Z,11.30
2019-03-20T12:05:44.634Z,11.30
2019-03-20T12:08:17.721Z,11.30
2019-03-20T12:11:45.216Z,11.40
2019-03-20T12:14:28.178Z,11.40
2019-03-20T12:17:22.871Z,11.50
2019-03-20T12:19:49.956Z,11.50
2019-03-20T12:22:17.201Z,11.50
2019-03-20T12:24:44.225Z,11.60
2019-03-20T12:27:15.314Z,11.60
2019-03-20T12:29:40.463Z,11.60
2019-03-20T12:32:07.679Z,11.70
2019-03-20T12:34:34.790Z,11.60
2019-03-20T12:37:02.072Z,11.60
2019-03-20T12:39:31.969Z,11.70
2019-03-20T12:41:59.200Z,11.70
2019-03-20T12:44:26.504Z,11.70
2019-03-20T12:46:53.617Z,11.80
2019-03-20T12:49:20.664Z,11.80
2019-03-20T12:51:47.867Z,11.80
2019-03-20T12:54:15.428Z,11.80
2019-03-20T12:56:42.552Z,11.80
2019-03-20T12:59:09.700Z,11.90
2019-03-20T13:01:36.803Z,12.00
2019-03-20T13:04:04.062Z,11.90
2019-03-20T13:06:31.084Z,12.10
2019-03-20T13:09:00.350Z,12.00
2019-03-20T13:11:27.568Z,12.10
2019-03-20T13:13:54.816Z,12.20
2019-03-20T13:16:29.271Z,12.20
2019-03-20T13:18:56.274Z,12.20
2019-03-20T13:21:23.402Z,12.30
2019-03-20T13:23:50.974Z,12.30
2019-03-20T13:26:18.124Z,12.40
2019-03-20T13:28:45.249Z,12.50
2019-03-20T13:31:16.145Z,12.60
2019-03-20T13:33:43.412Z,12.70
2019-03-20T13:36:10.575Z,12.70
2019-03-20T13:38:37.559Z,12.80
2019-03-20T13:41:04.873Z,12.80
2019-03-20T13:43:32.009Z,13.00
2019-03-20T13:45:59.252Z,12.90
2019-03-20T13:48:28.593Z,12.80
2019-03-20T13:50:55.680Z,12.80
2019-03-20T13:53:22.723Z,12.80
2019-03-20T13:55:49.827Z,12.70
2019-03-20T13:58:17.085Z,12.60
2019-03-20T14:00:44.314Z,12.50
2019-03-20T14:03:11.810Z,12.60
2019-03-20T14:05:38.911Z,12.40
2019-03-20T14:08:06.427Z,12.40
2019-03-20T14:10:33.661Z,12.40
2019-03-20T14:13:00.911Z,12.30
2019-03-20T14:15:28.058Z,12.30
2019-03-20T14:17:55.265Z,12.30
2019-03-20T14:20:22.926Z,12.30
2019-03-20T14:22:50.177Z,12.20
2019-03-20T14:25:17.388Z,12.20
2019-03-20T14:27:44.620Z,12.20
2019-03-20T14:30:19.936Z,12.20
2019-03-20T14:32:47.165Z,12.20
2019-03-20T14:35:15.557Z,12.20
2019-03-20T14:37:42.657Z,12.10
2019-03-20T14:40:10.531Z,12.10
2019-03-20T14:42:37.852Z,12.10
2019-03-20T14:45:06.880Z,12.10
2019-03-20T14:47:41.903Z,12.10
2019-03-20T14:50:03.451Z,12.10
2019-03-20T14:52:30.722Z,12.10
2019-03-20T14:54:57.808Z,12.00
2019-03-20T14:57:24.816Z,12.00
2019-03-20T14:59:51.919Z,12.00
2019-03-20T15:02:19.158Z,12.00
2019-03-20T15:04:46.404Z,12.00
2019-03-20T15:07:13.661Z,11.90
2019-03-20T15:09:40.666Z,11.90
2019-03-20T15:12:07.787Z,12.00
2019-03-20T15:14:35.105Z,11.80
2019-03-20T15:17:02.361Z,11.90
2019-03-20T15:19:29.404Z,11.80
2019-03-20T15:21:56.548Z,11.70
2019-03-20T15:24:23.780Z,11.70
2019-03-20T15:26:50.794Z,11.70
2019-03-20T15:29:17.840Z,11.70
2019-03-20T15:31:44.945Z,11.60
2019-03-20T15:34:12.100Z,11.60
2019-03-20T15:36:39.087Z,11.50
2019-03-20T15:39:07.518Z,11.50
2019-03-20T15:41:35.258Z,11.50
2019-03-20T15:44:02.915Z,11.50
2019-03-20T15:46:31.541Z,11.40
2019-03-20T15:49:02.168Z,11.50
2019-03-20T15:51:31.705Z,11.40
2019-03-20T15:53:59.337Z,11.30
2019-03-20T15:56:26.692Z,11.30
2019-03-20T15:58:55.970Z,11.20
2019-03-20T16:01:25.324Z,11.20
2019-03-20T16:03:53.055Z,11.10
2019-03-20T16:06:20.324Z,11.10
2019-03-20T16:08:48.483Z,11.00
2019-03-20T16:11:16.429Z,10.90
2019-03-20T16:13:43.444Z,10.90
2019-03-20T16:16:10.596Z,10.80
2019-03-20T16:18:37.845Z,10.80
2019-03-20T16:21:05.085Z,10.70
2019-03-20T16:23:33.157Z,10.60
2019-03-20T16:26:01.581Z,10.60
2019-03-20T16:28:28.680Z,10.50
2019-03-20T16:30:56.202Z,10.40
2019-03-20T16:33:23.615Z,10.40
2019-03-20T16:35:51.502Z,10.30
2019-03-20T16:38:20.011Z,10.10
2019-03-20T16:40:47.047Z,10.10
2019-03-20T16:43:14.150Z,10.00
2019-03-20T16:45:41.884Z,9.90
2019-03-20T16:48:09.186Z,9.80
2019-03-20T16:50:38.248Z,9.70
2019-03-20T16:53:05.403Z,9.70
2019-03-20T16:55:32.660Z,9.50
2019-03-20T16:57:59.948Z,9.30
2019-03-20T17:00:27.635Z,9.20
2019-03-20T17:02:54.952Z,9.10
2019-03-20T17:05:22.401Z,9.00
2019-03-20T17:07:49.520Z,8.80
2019-03-20T17:10:25.275Z,8.70
2019-03-20T17:12:52.472Z,8.50
2019-03-20T17:15:21.168Z,8.40
2019-03-20T17:17:48.291Z,8.30
2019-03-20T17:20:15.531Z,8.10
2019-03-20T17:22:42.536Z,8.00
2019-03-20T17:25:09.811Z,7.90
2019-03-20T17:27:37.091Z,7.80
2019-03-20T17:30:06.673Z,7.70
2019-03-20T17:32:33.695Z,7.60
2019-03-20T17:35:00.807Z,7.50
2019-03-20T17:37:27.879Z,7.40
2019-03-20T17:39:54.875Z,7.30
2019-03-20T17:42:21.975Z,7.20
2019-03-20T17:44:49.136Z,7.10
2019-03-20T17:47:16.251Z,7.00
2019-03-20T17:49:43.314Z,7.00
2019-03-20T17:52:10.415Z,6.90
2019-03-20T17:54:38.668Z,6.80
2019-03-20T17:57:05.792Z,6.80
2019-03-20T17:59:32.944Z,6.70
2019-03-20T18:02:00.477Z,6.60
2019-03-20T18:04:27.599Z,6.50
2019-03-20T18:06:54.603Z,6.40
2019-03-20T18:09:21.752Z,6.30
2019-03-20T18:11:48.854Z,6.20
2019-03-20T18:14:16.262Z,6.20
2019-03-20T18:16:43.556Z,6.10
2019-03-20T18:19:11.598Z,6.10
2019-03-20T18:21:38.623Z,6.00
2019-03-20T18:24:05.758Z,6.00
2019-03-20T18:26:32.770Z,5.90
2019-03-20T18:29:00.012Z,5.80
2019-03-20T18:31:27.520Z,5.80
2019-03-20T18:33:54.796Z,5.70
2019-03-20T18:36:23.964Z,5.60
2019-03-20T18:38:51.210Z,5.50
2019-03-20T18:41:18.517Z,5.40
2019-03-20T18:43:45.715Z,5.30
2019-03-20T18:46:12.855Z,5.20
2019-03-20T18:48:40.173Z,5.20
2019-03-20T18:51:07.276Z,5.20
2019-03-20T18:53:34.723Z,5.10
2019-03-20T18:56:02.132Z,5.10
2019-03-20T18:58:29.375Z,5.00
2019-03-20T19:00:56.495Z,5.00
2019-03-20T19:03:23.768Z,4.90
2019-03-20T19:05:57.227Z,4.90
2019-03-20T19:08:24.490Z,4.80
2019-03-20T19:10:51.820Z,4.80
2019-03-20T19:13:19.155Z,4.70
2019-03-20T19:15:46.400Z,4.70
2019-03-20T19:18:13.647Z,4.60
2019-03-20T19:20:43.175Z,4.60
2019-03-20T19:23:10.431Z,4.50
2019-03-20T19:25:37.458Z,4.50
2019-03-20T19:28:17.905Z,4.40
2019-03-20T19:30:47.634Z,4.40
2019-03-20T19:33:14.936Z,4.30
2019-03-20T19:35:44.642Z,4.30
2019-03-20T19:38:11.764Z,4.20
2019-03-20T19:40:38.887Z,4.20
2019-03-20T19:43:06.046Z,4.20
2019-03-20T19:45:33.195Z,4.20
2019-03-20T19:48:00.586Z,4.20
2019-03-20T19:50:27.671Z,4.10
2019-03-20T19:52:54.910Z,4.10
2019-03-20T19:55:22.120Z,4.10
2019-03-20T19:57:49.284Z,4.00
2019-03-20T20:00:16.639Z,4.00
2019-03-20T20:02:43.908Z,4.00
2019-03-20T20:05:15.765Z,4.00
2019-03-20T20:07:41.134Z,3.90
2019-03-20T20:10:09.748Z,3.90
2019-03-20T20:12:37.828Z,3.90
2019-03-20T20:15:07.955Z,3.90
2019-03-20T20:17:35.548Z,3.90
2019-03-20T20:20:04.107Z,3.90
2019-03-20T20:22:31.364Z,3.90
2019-03-20T20:24:59.112Z,3.90
2019-03-20T20:27:26.692Z,3.80
2019-03-20T20:29:53.949Z,3.80
2019-03-20T20:32:21.602Z,3.80
2019-03-20T20:34:48.757Z,3.80
2019-03-20T20:37:15.755Z,3.80
2019-03-20T20:39:43.116Z,3.80
2019-03-20T20:42:10.743Z,3.80
2019-03-20T20:44:38.045Z,3.80
2019-03-20T20:47:05.419Z,3.70
2019-03-20T20:49:32.452Z,3.70
2019-03-20T20:51:59.612Z,3.70
2019-03-20T20:54:26.628Z,3.70
2019-03-20T20:56:53.914Z,3.70
2019-03-20T20:59:20.945Z,3.70
2019-03-20T21:01:48.074Z,3.70
2019-03-20T21:04:15.127Z,3.70
2019-03-20T21:06:42.242Z,3.70
2019-03-20T21:09:09.982Z,3.70
2019-03-20T21:11:37.074Z,3.70
2019-03-20T21:14:04.401Z,3.70
2019-03-20T21:16:32.336Z,3.70
2019-03-20T21:19:35.256Z,3.70
2019-03-20T21:22:41.589Z,3.70
2019-03-20T21:25:09.424Z,3.70
2019-03-20T21:28:29.028Z,3.70
2019-03-20T21:31:20.407Z,3.70
2019-03-20T21:34:32.864Z,3.80
2019-03-20T21:37:42.975Z,3.70
2019-03-20T21:40:12.641Z,3.70
2019-03-20T21:43:18.928Z,3.70
2019-03-20T21:46:22.824Z,3.70
2019-03-20T21:48:50.605Z,3.60
2019-03-20T21:51:19.855Z,3.60
2019-03-20T21:54:42.153Z,3.60
2019-03-20T21:57:41.184Z,3.50
2019-03-20T22:00:38.208Z,3.50
2019-03-20T22:03:06.315Z,3.50
2019-03-20T22:05:56.099Z,3.50
2019-03-20T22:08:24.240Z,3.50
2019-03-20T22:11:41.657Z,3.50
2019-03-20T22:14:09.447Z,3.50
2019-03-20T22:17:21.855Z,3.60
2019-03-20T22:20:18.232Z,3.70
2019-03-20T22:23:20.172Z,3.80
2019-03-20T22:26:23.951Z,3.90
2019-03-20T22:29:27.212Z,4.00
2019-03-20T22:32:20.510Z,4.10
2019-03-20T22:35:19.205Z,4.30
2019-03-20T22:37:57.119Z,4.40
2019-03-20T22:41:12.380Z,4.50
2019-03-20T22:43:45.203Z,4.70
2019-03-20T22:47:18.379Z,4.80
2019-03-20T22:50:12.419Z,4.90
2019-03-20T22:53:18.453Z,5.00
2019-03-20T22:56:28.295Z,5.10
2019-03-20T22:58:56.343Z,5.20
2019-03-20T23:01:29.333Z,5.30
2019-03-20T23:04:01.526Z,5.50
2019-03-20T23:06:29.216Z,5.50
2019-03-20T23:08:56.998Z,5.60
2019-03-20T23:11:24.889Z,5.60
2019-03-20T23:13:52.619Z,5.70
2019-03-20T23:16:20.386Z,5.80
2019-03-20T23:18:48.164Z,5.80
2019-03-20T23:21:15.844Z,5.90
2019-03-20T23:23:43.579Z,5.90
2019-03-20T23:26:11.340Z,6.00
2019-03-20T23:28:39.909Z,6.10
2019-03-20T23:31:07.908Z,6.10
2019-03-20T23:33:35.662Z,6.20
2019-03-20T23:36:03.507Z,6.20
2019-03-20T23:38:31.276Z,6.20
2019-03-20T23:40:59.023Z,6.30
2019-03-20T23:43:26.765Z,6.30
2019-03-20T23:45:54.461Z,6.30
2019-03-20T23:48:37.983Z,6.40
2019-03-20T23:51:09.235Z,6.40
2019-03-20T23:53:38.891Z,6.50
2019-03-20T23:56:06.618Z,6.50
2019-03-20T23:58:36.585Z,6.50
